createdAt,value
2019-04-25T10:39:29.320Z,62.87
2019-04-25T10:40:29.201Z,62.90
2019-04-25T10:41:29.188Z,62.80
2019-04-25T10:42:29.177Z,62.26
2019-04-25T10:43:29.165Z,59.82
2019-04-25T10:44:29.152Z,60.52
2019-04-25T10:45:29.142Z,61.13
2019-04-25T10:46:29.134Z,62.67
2019-04-25T10:47:29.122Z,61.84
2019-04-25T10:48:29.109Z,61.94
2019-04-25T10:49:29.100Z,61.40
2019-04-25T10:50:29.095Z,60.91
2019-04-25T10:51:29.079Z,61.36
2019-04-25T10:52:29.067Z,62.51
2019-04-25T10:53:29.057Z,60.69
2019-04-25T10:54:29.045Z,63.18
2019-04-25T10:55:29.036Z,60.30
2019-04-25T10:56:29.025Z,60.33
2019-04-25T10:57:29.014Z,58.86
2019-04-25T10:58:29.004Z,59.72
2019-04-25T10:59:28.994Z,59.66
2019-04-25T11:00:28.983Z,57.92
2019-04-25T11:01:28.976Z,61.00
2019-04-25T11:02:28.962Z,59.88
2019-04-25T11:03:28.954Z,60.39
2019-04-25T11:04:28.942Z,60.49
2019-04-25T11:05:28.935Z,59.49
2019-04-25T11:06:28.925Z,59.40
2019-04-25T11:07:28.916Z,58.40
2019-04-25T11:08:28.922Z,59.69
2019-04-25T11:09:28.901Z,59.49
2019-04-25T11:10:28.888Z,60.61
2019-04-25T11:11:28.881Z,57.35
2019-04-25T11:12:28.872Z,56.96
2019-04-25T11:13:28.863Z,58.15
2019-04-25T11:14:28.855Z,58.63
2019-04-25T11:15:28.846Z,58.53
2019-04-25T11:16:28.836Z,60.65
2019-04-25T11:17:28.830Z,62.70
2019-04-25T11:18:28.820Z,57.95
2019-04-25T11:19:28.816Z,57.95
2019-04-25T11:20:28.806Z,56.60
2019-04-25T11:21:28.797Z,56.51
2019-04-25T11:22:28.788Z,59.11
2019-04-25T11:23:28.780Z,58.82
2019-04-25T11:24:28.772Z,59.78
2019-04-25T11:25:28.765Z,58.12
2019-04-25T11:26:28.761Z,59.66
2019-04-25T11:27:28.748Z,61.19
2019-04-25T11:28:28.743Z,58.57
2019-04-25T11:29:28.731Z,58.98
2019-04-25T11:30:28.721Z,58.70
2019-04-25T11:31:28.718Z,57.35
2019-04-25T11:32:28.707Z,59.17
2019-04-25T11:33:28.694Z,59.47
2019-04-25T11:34:28.687Z,62.09
2019-04-25T11:35:28.679Z,58.15
2019-04-25T11:36:28.671Z,59.20
2019-04-25T11:37:28.666Z,60.36
2019-04-25T11:38:30.818Z,59.66
2019-04-25T11:39:28.643Z,59.17
2019-04-25T11:40:28.635Z,59.30
2019-04-25T11:41:28.626Z,56.70
2019-04-25T11:42:28.619Z,58.44
2019-04-25T11:43:28.609Z,58.34
2019-04-25T11:44:28.600Z,57.06
2019-04-25T11:45:28.594Z,57.50
2019-04-25T11:46:28.582Z,57.50
2019-04-25T11:47:28.573Z,57.40
2019-04-25T11:48:28.563Z,57.37
2019-04-25T11:49:28.556Z,57.95
2019-04-25T11:50:28.547Z,57.21
2019-04-25T11:51:28.537Z,57.34
2019-04-25T11:52:30.309Z,54.93
2019-04-25T11:53:28.520Z,54.09
2019-04-25T11:54:28.512Z,52.64
2019-04-25T11:55:28.505Z,53.61
2019-04-25T11:56:28.496Z,52.16
2019-04-25T11:57:28.488Z,52.64
2019-04-25T11:58:28.481Z,53.31
2019-04-25T11:59:28.473Z,53.55
2019-04-25T12:00:28.465Z,54.83
2019-04-25T12:01:28.458Z,55.12
2019-04-25T12:02:28.451Z,54.06
2019-04-25T12:03:28.443Z,54.13
2019-04-25T12:04:28.435Z,55.57
2019-04-25T12:05:28.426Z,54.30
2019-04-25T12:06:28.419Z,55.74
2019-04-25T12:07:28.409Z,55.74
2019-04-25T12:08:28.400Z,55.16
2019-04-25T12:09:28.390Z,54.39
2019-04-25T12:10:28.381Z,55.26
2019-04-25T12:11:28.396Z,55.74
2019-04-25T12:12:28.363Z,54.56
2019-04-25T12:13:28.353Z,55.62
2019-04-25T12:14:28.343Z,55.33
2019-04-25T12:15:28.333Z,55.90
2019-04-25T12:16:28.321Z,56.48
2019-04-25T12:17:28.311Z,57.03
2019-04-25T12:18:28.301Z,57.80
2019-04-25T12:19:35.865Z,57.32
2019-04-25T12:20:28.291Z,57.03
2019-04-25T12:21:28.266Z,57.68
2019-04-25T12:22:28.256Z,57.29
2019-04-25T12:23:28.242Z,58.15
2019-04-25T12:24:28.236Z,58.28
2019-04-25T12:25:28.223Z,56.36
2019-04-25T12:26:28.205Z,55.98
2019-04-25T12:27:28.193Z,55.68
2019-04-25T12:28:28.179Z,55.33
2019-04-25T12:29:28.166Z,54.36
2019-04-25T12:30:37.142Z,55.16
2019-04-25T12:31:28.143Z,55.07
2019-04-25T12:32:28.131Z,55.45
2019-04-25T12:33:28.117Z,56.54
2019-04-25T12:34:28.105Z,55.00
2019-04-25T12:35:28.096Z,55.67
2019-04-25T12:36:28.086Z,54.78
2019-04-25T12:37:28.069Z,57.37
2019-04-25T12:38:28.059Z,56.03
2019-04-25T12:39:28.048Z,56.54
2019-04-25T12:40:28.034Z,55.89
2019-04-25T12:41:28.023Z,54.61
2019-04-25T12:42:28.011Z,53.69
2019-04-25T12:43:28.001Z,54.08
2019-04-25T12:44:27.986Z,55.13
2019-04-25T12:45:27.974Z,55.11
2019-04-25T12:46:27.962Z,55.59
2019-04-25T12:47:27.950Z,56.29
2019-04-25T12:48:27.935Z,57.64
2019-04-25T12:49:27.925Z,55.43
2019-04-25T12:50:27.912Z,55.49
2019-04-25T12:51:27.898Z,56.55
2019-04-25T12:52:27.885Z,55.46
2019-04-25T12:53:27.871Z,57.51
2019-04-25T12:54:27.858Z,57.80
2019-04-25T12:55:27.849Z,57.70
2019-04-25T12:56:27.831Z,59.05
2019-04-25T12:57:27.815Z,59.15
2019-04-25T12:58:27.803Z,58.09
2019-04-25T12:59:27.789Z,58.37
2019-04-25T13:00:27.774Z,58.73
2019-04-25T13:01:27.765Z,59.05
2019-04-25T13:02:27.747Z,58.89
2019-04-25T13:03:27.733Z,57.76
2019-04-25T13:04:27.719Z,57.86
2019-04-25T13:05:27.705Z,56.48
2019-04-25T13:06:27.693Z,55.62
2019-04-25T13:07:27.683Z,55.52
2019-04-25T13:08:27.672Z,57.35
2019-04-25T13:09:27.650Z,58.37
2019-04-25T13:10:27.644Z,56.15
2019-04-25T13:11:27.624Z,56.51
2019-04-25T13:12:27.609Z,56.03
2019-04-25T13:13:27.596Z,55.35
2019-04-25T13:14:28.604Z,55.71
2019-04-25T13:15:28.368Z,57.18
2019-04-25T13:16:27.559Z,57.45
2019-04-25T13:17:27.543Z,57.25
2019-04-25T13:18:27.529Z,56.48
2019-04-25T13:19:27.515Z,56.16
2019-04-25T13:20:27.501Z,57.54
2019-04-25T13:21:27.487Z,56.38
2019-04-25T13:22:27.474Z,56.48
2019-04-25T13:23:27.459Z,58.05
2019-04-25T13:24:27.445Z,56.41
2019-04-25T13:25:27.433Z,54.75
2019-04-25T13:26:27.418Z,55.04
2019-04-25T13:27:27.404Z,55.35
2019-04-25T13:28:27.390Z,53.91
2019-04-25T13:29:27.374Z,50.54
2019-04-25T13:30:27.364Z,49.22
2019-04-25T13:31:27.347Z,47.89
2019-04-25T13:32:27.333Z,49.41
2019-04-25T13:33:27.319Z,48.35
2019-04-25T13:34:36.091Z,47.67
2019-04-25T13:35:27.297Z,47.77
2019-04-25T13:36:27.277Z,46.52
2019-04-25T13:37:27.264Z,46.14
2019-04-25T13:38:27.252Z,46.42
2019-04-25T13:39:27.237Z,46.98
2019-04-25T13:40:27.224Z,48.43
2019-04-25T13:41:27.210Z,48.71
2019-04-25T13:42:27.195Z,49.19
2019-04-25T13:43:27.182Z,49.19
2019-04-25T13:44:27.168Z,49.51
2019-04-25T13:45:27.155Z,49.70
2019-04-25T13:46:27.687Z,49.89
2019-04-25T13:47:29.181Z,50.37
2019-04-25T13:48:27.996Z,49.41
2019-04-25T13:49:27.305Z,50.37
2019-04-25T13:50:27.617Z,50.09
2019-04-25T13:51:27.072Z,50.40
2019-04-25T13:52:27.058Z,50.47
2019-04-25T13:53:27.394Z,50.30
2019-04-25T13:54:27.033Z,51.05
2019-04-25T13:55:27.019Z,49.99
2019-04-25T13:56:27.842Z,49.89
2019-04-25T13:57:27.853Z,49.12
2019-04-25T13:58:29.512Z,48.74
2019-04-25T13:59:26.982Z,48.83
2019-04-25T14:00:27.755Z,49.32
2019-04-25T14:01:27.610Z,48.35
2019-04-25T14:02:26.925Z,48.44
2019-04-25T14:03:27.307Z,48.16
2019-04-25T14:04:27.987Z,48.25
2019-04-25T14:05:26.885Z,49.02
2019-04-25T14:06:26.870Z,49.51
2019-04-25T14:07:27.333Z,49.79
2019-04-25T14:08:27.005Z,51.24
2019-04-25T14:09:27.155Z,50.73
2019-04-25T14:10:26.825Z,49.68
2019-04-25T14:11:26.804Z,50.66
2019-04-25T14:12:28.743Z,49.41
2019-04-25T14:13:27.522Z,49.22
2019-04-25T14:14:26.834Z,49.48
2019-04-25T14:15:27.492Z,50.66
2019-04-25T14:16:26.847Z,50.83
2019-04-25T14:17:26.724Z,50.35
2019-04-25T14:18:26.710Z,49.74
2019-04-25T14:19:26.698Z,50.61
2019-04-25T14:20:26.699Z,50.51
2019-04-25T14:21:27.306Z,51.57
2019-04-25T14:22:27.530Z,51.29
2019-04-25T14:23:27.415Z,51.67
2019-04-25T14:24:30.525Z,52.06
2019-04-25T14:25:27.640Z,52.73
2019-04-25T14:26:27.056Z,53.02
2019-04-25T14:27:26.587Z,52.25
2019-04-25T14:28:29.349Z,52.15
2019-04-25T14:29:26.558Z,51.48
2019-04-25T14:30:26.546Z,51.67
2019-04-25T14:31:41.334Z,51.86
2019-04-25T14:32:28.708Z,51.48
2019-04-25T14:33:27.447Z,52.06
2019-04-25T14:34:26.619Z,51.64
2019-04-25T14:35:26.636Z,52.73
2019-04-25T14:36:28.353Z,52.83
2019-04-25T14:37:29.808Z,52.44
2019-04-25T14:38:26.646Z,54.36
2019-04-25T14:39:27.410Z,54.56
2019-04-25T14:40:27.030Z,54.75
2019-04-25T14:41:26.393Z,55.23
2019-04-25T14:42:26.506Z,55.13
2019-04-25T14:43:26.364Z,54.75
2019-04-25T14:44:26.350Z,55.62
2019-04-25T14:45:26.654Z,55.23
2019-04-25T14:46:26.576Z,54.46
2019-04-25T14:47:26.308Z,54.75
2019-04-25T14:48:27.190Z,54.94
2019-04-25T14:49:26.385Z,56.48
2019-04-25T14:50:26.994Z,57.90
2019-04-25T14:51:26.255Z,58.47
2019-04-25T14:52:26.235Z,57.80
2019-04-25T14:53:26.221Z,57.20
2019-04-25T14:54:26.401Z,57.99
2019-04-25T14:55:26.193Z,57.60
2019-04-25T14:56:26.179Z,58.15
2019-04-25T14:57:26.189Z,57.93
2019-04-25T14:58:26.205Z,58.32
2019-04-25T14:59:26.476Z,58.89
2019-04-25T15:00:26.176Z,59.47
2019-04-25T15:01:26.126Z,60.53
2019-04-25T15:02:26.090Z,60.63
2019-04-25T15:03:26.104Z,59.57
2019-04-25T15:04:26.063Z,60.63
2019-04-25T15:05:26.044Z,60.31
2019-04-25T15:06:26.029Z,60.82
2019-04-25T15:07:26.013Z,60.11
2019-04-25T15:08:26.602Z,60.40
2019-04-25T15:09:26.810Z,60.98
2019-04-25T15:10:26.551Z,60.60
2019-04-25T15:11:26.941Z,61.17
2019-04-25T15:12:26.863Z,60.98
2019-04-25T15:13:25.919Z,59.28
2019-04-25T15:14:26.897Z,59.66
2019-04-25T15:15:26.582Z,58.80
2019-04-25T15:16:25.872Z,59.76
2019-04-25T15:17:26.446Z,59.57
2019-04-25T15:18:26.704Z,60.43
2019-04-25T15:19:25.826Z,61.01
2019-04-25T15:20:26.156Z,61.27
2019-04-25T15:21:26.258Z,60.63
2019-04-25T15:22:25.777Z,60.63
2019-04-25T15:23:25.762Z,58.96
2019-04-25T15:24:25.748Z,59.44
2019-04-25T15:25:26.184Z,60.78
2019-04-25T15:26:25.668Z,60.88
2019-04-25T15:27:26.450Z,61.08
2019-04-25T15:28:25.637Z,61.40
2019-04-25T15:29:26.503Z,62.07
2019-04-25T15:30:29.003Z,62.35
2019-04-25T15:31:25.707Z,62.23
2019-04-25T15:32:26.168Z,63.48
2019-04-25T15:33:26.443Z,62.19
2019-04-25T15:34:25.987Z,62.23
2019-04-25T15:35:25.851Z,62.96
2019-04-25T15:36:25.560Z,63.28
2019-04-25T15:37:26.457Z,63.57
2019-04-25T15:38:25.528Z,64.34
2019-04-25T15:39:26.177Z,63.57
2019-04-25T15:40:26.331Z,63.96
2019-04-25T15:41:26.219Z,63.67
2019-04-25T15:42:26.227Z,64.69
2019-04-25T15:43:26.281Z,65.46
2019-04-25T15:44:25.433Z,65.08
2019-04-25T15:45:26.362Z,65.36
2019-04-25T15:46:26.093Z,65.46
2019-04-25T15:47:26.413Z,65.46
2019-04-25T15:48:26.163Z,65.56
2019-04-25T15:49:25.424Z,66.03
2019-04-25T15:50:26.327Z,66.03
2019-04-25T15:51:25.554Z,65.75
2019-04-25T15:52:26.658Z,66.03
2019-04-25T15:53:25.291Z,67.09
2019-04-25T15:54:26.294Z,67.47
2019-04-25T15:55:26.234Z,65.94
2019-04-25T15:56:25.241Z,65.65
2019-04-25T15:57:25.247Z,66.80
2019-04-25T15:58:25.347Z,66.80
2019-04-25T15:59:25.195Z,66.52
2019-04-25T16:00:25.179Z,66.80
2019-04-25T16:01:26.363Z,67.96
2019-04-25T16:02:25.146Z,67.47
2019-04-25T16:03:25.143Z,67.47
2019-04-25T16:04:25.705Z,67.09
2019-04-25T16:05:25.651Z,65.65
2019-04-25T16:06:25.571Z,66.23
2019-04-25T16:07:25.066Z,66.36
2019-04-25T16:08:25.048Z,66.55
2019-04-25T16:09:25.039Z,66.74
2019-04-25T16:10:25.018Z,66.74
2019-04-25T16:11:26.516Z,66.74
2019-04-25T16:12:24.984Z,67.03
2019-04-25T16:13:25.896Z,67.13
2019-04-25T16:14:26.354Z,67.41
2019-04-25T16:15:24.937Z,67.90
2019-04-25T16:16:24.920Z,68.76
2019-04-25T16:17:24.905Z,69.01
2019-04-25T16:18:24.890Z,68.15
2019-04-25T16:19:24.875Z,67.76
2019-04-25T16:20:24.856Z,68.37
2019-04-25T16:21:24.845Z,67.99
2019-04-25T16:22:24.827Z,67.76
2019-04-25T16:23:24.813Z,68.15
2019-04-25T16:24:24.793Z,67.86
2019-04-25T16:25:24.777Z,67.51
2019-04-25T16:26:24.762Z,68.15
2019-04-25T16:27:24.747Z,68.05
2019-04-25T16:28:24.731Z,66.86
2019-04-25T16:29:24.716Z,67.57
2019-04-25T16:30:24.710Z,67.57
2019-04-25T16:31:24.681Z,67.61
2019-04-25T16:32:24.666Z,67.13
2019-04-25T16:33:24.649Z,67.00
2019-04-25T16:34:24.634Z,66.93
2019-04-25T16:35:24.618Z,67.61
2019-04-25T16:36:24.603Z,67.80
2019-04-25T16:37:24.587Z,67.70
2019-04-25T16:38:24.570Z,67.51
2019-04-25T16:39:24.555Z,67.22
2019-04-25T16:40:24.537Z,67.32
2019-04-25T16:41:24.521Z,67.61
2019-04-25T16:42:24.506Z,67.90
2019-04-25T16:43:24.491Z,68.08
2019-04-25T16:44:24.473Z,67.51
2019-04-25T16:45:24.458Z,67.90
2019-04-25T16:46:24.445Z,68.37
2019-04-25T16:47:24.428Z,67.61
2019-04-25T16:48:24.411Z,69.01
2019-04-25T16:49:24.399Z,67.96
2019-04-25T16:50:24.378Z,69.34
2019-04-25T16:51:24.363Z,69.34
2019-04-25T16:52:24.347Z,69.97
2019-04-25T16:53:24.330Z,69.81
2019-04-25T16:54:24.314Z,69.43
2019-04-25T16:55:24.299Z,69.81
2019-04-25T16:56:24.282Z,70.74
2019-04-25T16:57:24.267Z,69.72
2019-04-25T16:58:24.267Z,70.64
2019-04-25T16:59:24.234Z,72.28
2019-04-25T17:00:24.219Z,72.47
2019-04-25T17:01:24.203Z,72.24
2019-04-25T17:02:32.843Z,73.39
2019-04-25T17:03:24.171Z,72.63
2019-04-25T17:04:24.154Z,73.52
2019-04-25T17:05:24.137Z,73.68
2019-04-25T17:06:24.121Z,74.29
2019-04-25T17:07:24.106Z,75.31
2019-04-25T17:08:24.088Z,76.59
2019-04-25T17:09:24.073Z,75.12
2019-04-25T17:10:24.057Z,75.02
2019-04-25T17:11:24.040Z,75.70
2019-04-25T17:12:24.030Z,76.27
2019-04-25T17:13:24.007Z,75.60
2019-04-25T17:14:23.990Z,76.07
2019-04-25T17:15:23.975Z,75.31
2019-04-25T17:16:23.957Z,76.17
2019-04-25T17:17:23.945Z,75.46
2019-04-25T17:18:23.932Z,75.65
2019-04-25T17:19:23.910Z,77.95
2019-04-25T17:20:23.891Z,77.86
2019-04-25T17:21:23.876Z,78.15
2019-04-25T17:22:23.859Z,78.47
2019-04-25T17:23:23.843Z,78.92
2019-04-25T17:24:23.825Z,78.44
2019-04-25T17:25:23.808Z,78.53
2019-04-25T17:26:23.791Z,77.92
2019-04-25T17:27:23.775Z,79.78
2019-04-25T17:28:23.757Z,78.92
2019-04-25T17:29:23.742Z,79.45
2019-04-25T17:30:23.726Z,79.88
2019-04-25T17:31:23.707Z,80.60
2019-04-25T17:32:23.691Z,80.03
2019-04-25T17:33:23.680Z,79.83
2019-04-25T17:34:23.658Z,80.99
2019-04-25T17:35:23.642Z,80.32
2019-04-25T17:36:23.623Z,81.08
2019-04-25T17:37:23.605Z,80.22
2019-04-25T17:38:23.588Z,82.00
2019-04-25T17:39:23.617Z,81.46
2019-04-25T17:40:23.558Z,80.51
2019-04-25T17:41:23.536Z,80.99
2019-04-25T17:42:23.521Z,81.18
2019-04-25T17:43:23.504Z,80.99
2019-04-25T17:44:23.486Z,80.70
2019-04-25T17:45:23.471Z,81.23
2019-04-25T17:46:23.455Z,81.85
2019-04-25T17:47:23.437Z,81.18
2019-04-25T17:48:23.418Z,81.85
2019-04-25T17:49:23.398Z,81.66
2019-04-25T17:50:23.382Z,82.23
2019-04-25T17:51:23.365Z,82.09
2019-04-25T17:52:23.347Z,83.05
2019-04-25T17:53:23.330Z,82.71
2019-04-25T17:54:23.312Z,83.29
2019-04-25T17:55:23.295Z,82.57
2019-04-25T17:56:23.276Z,83.58
2019-04-25T17:57:23.266Z,83.15
2019-04-25T17:58:23.241Z,85.93
2019-04-25T17:59:23.226Z,84.97
2019-04-25T18:00:23.208Z,84.58
2019-04-25T18:01:23.190Z,83.38
2019-04-25T18:02:23.173Z,84.15
2019-04-25T18:03:23.155Z,84.34
2019-04-25T18:04:23.143Z,83.25
2019-04-25T18:05:23.122Z,83.29
2019-04-25T18:06:23.104Z,83.48
2019-04-25T18:07:23.085Z,82.62
2019-04-25T18:08:23.857Z,82.14
2019-04-25T18:09:23.050Z,82.32
2019-04-25T18:10:23.034Z,82.14
2019-04-25T18:11:23.016Z,82.29
2019-04-25T18:12:22.996Z,82.96
2019-04-25T18:13:22.979Z,83.92
2019-04-25T18:14:22.963Z,84.30
2019-04-25T18:15:22.944Z,84.49
2019-04-25T18:16:22.926Z,83.72
2019-04-25T18:17:22.910Z,83.63
2019-04-25T18:18:22.893Z,84.26
2019-04-25T18:19:25.066Z,83.49
2019-04-25T18:20:22.856Z,83.97
2019-04-25T18:21:22.837Z,83.87
2019-04-25T18:22:22.821Z,83.68
2019-04-25T18:23:22.802Z,84.06
2019-04-25T18:24:22.785Z,84.98
2019-04-25T18:25:22.767Z,85.60
2019-04-25T18:26:22.749Z,85.75
2019-04-25T18:27:22.735Z,85.21
2019-04-25T18:28:22.712Z,85.98
2019-04-25T18:29:22.696Z,85.84
2019-04-25T18:30:22.677Z,86.32
2019-04-25T18:31:22.665Z,86.80
2019-04-25T18:32:22.640Z,86.51
2019-04-25T18:33:22.625Z,87.27
2019-04-25T18:34:22.604Z,86.80
2019-04-25T18:35:22.586Z,87.66
2019-04-25T18:36:22.567Z,88.43
2019-04-25T18:37:22.700Z,88.81
2019-04-25T18:38:22.531Z,89.09
2019-04-25T18:39:22.555Z,88.43
2019-04-25T18:40:22.493Z,89.48
2019-04-25T18:41:22.476Z,89.29
2019-04-25T18:42:22.457Z,90.01
2019-04-25T18:43:22.440Z,90.58
2019-04-25T18:44:22.419Z,90.58
2019-04-25T18:45:22.402Z,91.44
2019-04-25T18:46:22.385Z,91.53
2019-04-25T18:47:22.366Z,92.40
2019-04-25T18:48:22.347Z,92.49
2019-04-25T18:49:22.331Z,92.88
2019-04-25T18:50:22.308Z,93.55
2019-04-25T18:51:22.290Z,93.16
2019-04-25T18:52:22.270Z,92.97
2019-04-25T18:53:22.256Z,93.26
2019-04-25T18:54:22.233Z,93.40
2019-04-25T18:55:22.216Z,93.35
2019-04-25T18:56:22.199Z,92.30
2019-04-25T18:57:22.183Z,92.30
2019-04-25T18:58:22.158Z,92.83
2019-04-25T18:59:22.139Z,92.74
2019-04-25T19:00:22.122Z,93.12
2019-04-25T19:01:22.102Z,95.03
2019-04-25T19:02:22.083Z,95.84
2019-04-25T19:03:24.519Z,95.70
2019-04-25T19:04:22.046Z,95.65
2019-04-25T19:05:22.025Z,95.70
2019-04-25T19:06:22.009Z,95.51
2019-04-25T19:07:22.914Z,96.08
2019-04-25T19:08:21.969Z,95.89
2019-04-25T19:09:21.951Z,95.65
2019-04-25T19:10:21.932Z,95.51
2019-04-25T19:11:21.912Z,95.61
2019-04-25T19:12:21.893Z,95.41
2019-04-25T19:13:21.874Z,95.41
2019-04-25T19:14:21.855Z,96.27
2019-04-25T19:15:21.835Z,96.08
2019-04-25T19:16:21.817Z,95.12
2019-04-25T19:17:21.798Z,97.13
2019-04-25T19:18:21.781Z,99.33
2019-04-25T19:19:21.759Z,99.24
2019-04-25T19:20:21.740Z,98.52
2019-04-25T19:21:21.722Z,99.38
2019-04-25T19:22:21.703Z,98.33
2019-04-25T19:23:21.745Z,99.99
2019-04-25T19:24:21.663Z,98.23
2019-04-25T19:25:21.644Z,98.04
2019-04-25T19:26:21.625Z,98.61
2019-04-25T19:27:23.832Z,99.19
2019-04-25T19:28:21.588Z,99.57
2019-04-25T19:29:21.566Z,98.13
2019-04-25T19:30:21.547Z,98.42
2019-04-25T19:31:21.527Z,98.04
2019-04-25T19:32:21.507Z,99.43
2019-04-25T19:33:21.490Z,99.66
2019-04-25T19:34:21.469Z,99.85
2019-04-25T19:35:21.454Z,99.99
2019-04-25T19:36:21.430Z,99.99
2019-04-25T19:37:21.416Z,99.62
2019-04-25T19:38:21.391Z,98.61
2019-04-25T19:39:21.373Z,99.24
2019-04-25T19:40:21.353Z,98.71
2019-04-25T19:41:21.332Z,99.99
2019-04-25T19:42:21.313Z,99.76
2019-04-25T19:43:21.295Z,99.99
2019-04-25T19:44:21.274Z,8.59
2019-04-25T19:45:21.253Z,0.00
2019-04-25T19:46:21.240Z,0.00
2019-04-25T19:47:21.216Z,0.00
2019-04-25T19:48:21.195Z,0.00
2019-04-25T19:49:21.175Z,0.00
2019-04-25T19:50:21.155Z,0.00
2019-04-25T19:51:21.136Z,0.00
2019-04-25T19:52:21.116Z,0.00
2019-04-25T19:53:21.099Z,0.00
2019-04-25T19:54:21.077Z,0.00
2019-04-25T19:55:21.057Z,0.00
2019-04-25T19:56:21.037Z,0.00
2019-04-25T19:57:21.019Z,0.00
2019-04-25T19:58:20.996Z,0.00
2019-04-25T19:59:20.977Z,0.00
2019-04-25T20:00:20.955Z,0.00
2019-04-25T20:01:20.939Z,0.00
2019-04-25T20:02:20.916Z,0.00
2019-04-25T20:03:20.897Z,0.00
2019-04-25T20:04:20.882Z,0.00
2019-04-25T20:05:20.855Z,0.00
2019-04-25T20:06:20.835Z,0.00
2019-04-25T20:07:20.817Z,0.00
2019-04-25T20:08:28.523Z,0.00
2019-04-25T20:09:20.774Z,0.00
2019-04-25T20:10:20.754Z,0.00
2019-04-25T20:11:20.734Z,0.00
2019-04-25T20:12:20.711Z,0.00
2019-04-25T20:13:20.692Z,0.00
2019-04-25T20:14:20.669Z,0.00
2019-04-25T20:15:20.650Z,0.00
2019-04-25T20:16:20.630Z,0.00
2019-04-25T20:17:20.609Z,0.00
2019-04-25T20:18:20.588Z,0.00
2019-04-25T20:19:20.567Z,0.00
2019-04-25T20:20:20.547Z,0.00
2019-04-25T20:21:20.526Z,0.00
2019-04-25T20:22:20.504Z,0.00
2019-04-25T20:23:20.484Z,0.00
2019-04-25T20:24:20.464Z,0.00
2019-04-25T20:25:20.443Z,0.00
2019-04-25T20:26:20.423Z,0.00
2019-04-25T20:27:20.401Z,0.00
2019-04-25T20:28:20.381Z,0.00
2019-04-25T20:29:20.362Z,0.00
2019-04-25T20:30:20.343Z,0.00
2019-04-25T20:31:20.322Z,0.00
2019-04-25T20:32:20.300Z,0.00
2019-04-25T20:33:20.286Z,0.00
2019-04-25T20:34:20.257Z,0.00
2019-04-25T20:35:20.235Z,0.00
2019-04-25T20:36:20.214Z,0.00
2019-04-25T20:37:20.192Z,0.00
2019-04-25T20:38:20.169Z,0.00
2019-04-25T20:39:20.149Z,0.00
2019-04-25T20:40:20.127Z,0.00
2019-04-25T20:41:20.198Z,0.00
2019-04-25T20:42:20.087Z,0.00
2019-04-25T20:43:20.065Z,0.00
2019-04-25T20:44:20.044Z,0.00
2019-04-25T20:45:20.022Z,0.00
2019-04-25T20:46:20.002Z,0.00
2019-04-25T20:47:19.981Z,0.00
2019-04-25T20:48:19.960Z,0.00
2019-04-25T20:49:19.938Z,0.00
2019-04-25T20:50:19.918Z,0.00
2019-04-25T20:51:19.899Z,0.00
2019-04-25T20:52:19.876Z,0.00
2019-04-25T20:53:19.855Z,0.00
2019-04-25T20:54:19.842Z,0.00
2019-04-25T20:55:19.813Z,0.00
2019-04-25T20:56:19.815Z,0.00
2019-04-25T20:57:19.771Z,0.00
2019-04-25T20:58:19.752Z,0.00
2019-04-25T20:59:19.730Z,0.00
2019-04-25T21:00:19.711Z,0.00
2019-04-25T21:01:19.688Z,0.00
2019-04-25T21:02:19.667Z,0.00
2019-04-25T21:03:19.645Z,0.00
2019-04-25T21:04:19.623Z,0.00
2019-04-25T21:05:19.602Z,0.00
2019-04-25T21:06:19.582Z,0.00
2019-04-25T21:07:19.561Z,0.00
2019-04-25T21:08:19.562Z,0.00
2019-04-25T21:09:19.518Z,0.00
